Poth, Texas
Current Conditions -  °F | °C
As of 4:55 PM on Wednesday 22 Oct 2014 (Local Time) from KPEZ Reporting Station
Broken Clouds Broken Clouds  
Wind Chill: 84°   Ceiling: 12000
Heat Index: 84°   Visibility: 10mi
Dew Point: 53°   Wind: 7mph
Humidity: 34%   Direction: 90°E
Pressure: 30.01"   Gusts: NA
Location:  29.07°N, 98.08°W
Report Text: KPEZ 222155Z AUTO 09006KT 10SM BKN120 29/12 A3001 RMK AO2 T02910119
Loading
Personal Weather Stations






























Interactive Weather Map
Tropical Storm Tracking
New forecast layout! Learn more

10-Day Weather Forecast

Advertisements
Track Severe Weather on mobile